sensor_id;sensor_type;location;lat;lon;timestamp;P1;durP1;ratioP1;P2;durP2;ratioP2
1010;SDS011;494;48.744;10.106;2023-09-18T00:01:55;906.33;;;840.77;;
1010;SDS011;494;48.744;10.106;2023-09-18T00:04:29;904.13;;;839.13;;
1010;SDS011;494;48.744;10.106;2023-09-18T00:06:59;888.13;;;824.13;;
1010;SDS011;494;48.744;10.106;2023-09-18T00:09:29;898.80;;;834.10;;
1010;SDS011;494;48.744;10.106;2023-09-18T00:12:00;899.97;;;835.47;;
1010;SDS011;494;48.744;10.106;2023-09-18T00:14:28;897.13;;;833.30;;
1010;SDS011;494;48.744;10.106;2023-09-18T00:17:01;894.83;;;830.93;;
1010;SDS011;494;48.744;10.106;2023-09-18T00:19:35;899.47;;;835.37;;
1010;SDS011;494;48.744;10.106;2023-09-18T00:22:04;891.83;;;828.60;;
1010;SDS011;494;48.744;10.106;2023-09-18T00:24:34;898.03;;;833.90;;
1010;SDS011;494;48.744;10.106;2023-09-18T00:27:04;900.07;;;835.93;;
1010;SDS011;494;48.744;10.106;2023-09-18T00:29:33;899.30;;;835.10;;
1010;SDS011;494;48.744;10.106;2023-09-18T00:32:02;897.53;;;833.80;;
1010;SDS011;494;48.744;10.106;2023-09-18T00:34:36;883.83;;;821.60;;
1010;SDS011;494;48.744;10.106;2023-09-18T00:37:06;883.63;;;821.53;;
1010;SDS011;494;48.744;10.106;2023-09-18T00:39:38;859.63;;;798.83;;
1010;SDS011;494;48.744;10.106;2023-09-18T00:42:17;885.17;;;823.07;;
1010;SDS011;494;48.744;10.106;2023-09-18T00:44:51;857.20;;;797.30;;
1010;SDS011;494;48.744;10.106;2023-09-18T00:47:20;865.27;;;804.97;;
1010;SDS011;494;48.744;10.106;2023-09-18T00:49:50;852.17;;;793.63;;
1010;SDS011;494;48.744;10.106;2023-09-18T00:52:25;850.57;;;791.93;;
1010;SDS011;494;48.744;10.106;2023-09-18T00:54:56;846.83;;;788.77;;
1010;SDS011;494;48.744;10.106;2023-09-18T00:57:27;827.60;;;770.93;;
1010;SDS011;494;48.744;10.106;2023-09-18T00:59:57;826.50;;;770.20;;
1010;SDS011;494;48.744;10.106;2023-09-18T01:02:27;817.20;;;761.60;;
1010;SDS011;494;48.744;10.106;2023-09-18T01:04:59;810.87;;;755.73;;
1010;SDS011;494;48.744;10.106;2023-09-18T01:07:29;802.57;;;748.67;;
1010;SDS011;494;48.744;10.106;2023-09-18T01:10:00;811.90;;;757.90;;
1010;SDS011;494;48.744;10.106;2023-09-18T01:12:33;797.63;;;744.00;;
1010;SDS011;494;48.744;10.106;2023-09-18T01:15:17;787.03;;;734.20;;
1010;SDS011;494;48.744;10.106;2023-09-18T01:17:52;797.70;;;744.23;;
1010;SDS011;494;48.744;10.106;2023-09-18T01:20:33;793.37;;;740.67;;
1010;SDS011;494;48.744;10.106;2023-09-18T01:23:04;799.50;;;746.57;;
1010;SDS011;494;48.744;10.106;2023-09-18T01:25:38;796.47;;;743.80;;
1010;SDS011;494;48.744;10.106;2023-09-18T01:28:12;787.27;;;735.27;;
1010;SDS011;494;48.744;10.106;2023-09-18T01:30:44;787.53;;;735.80;;
1010;SDS011;494;48.744;10.106;2023-09-18T01:33:13;778.67;;;727.03;;
1010;SDS011;494;48.744;10.106;2023-09-18T01:35:45;776.93;;;724.73;;
1010;SDS011;494;48.744;10.106;2023-09-18T01:38:20;758.30;;;707.73;;
1010;SDS011;494;48.744;10.106;2023-09-18T01:40:51;777.73;;;726.23;;
1010;SDS011;494;48.744;10.106;2023-09-18T01:43:22;772.30;;;721.20;;
1010;SDS011;494;48.744;10.106;2023-09-18T01:45:54;756.10;;;706.57;;
1010;SDS011;494;48.744;10.106;2023-09-18T01:48:26;757.33;;;708.33;;
1010;SDS011;494;48.744;10.106;2023-09-18T01:51:00;744.37;;;695.83;;
1010;SDS011;494;48.744;10.106;2023-09-18T01:53:32;724.60;;;678.03;;
1010;SDS011;494;48.744;10.106;2023-09-18T01:56:03;696.80;;;651.90;;
1010;SDS011;494;48.744;10.106;2023-09-18T01:58:33;677.07;;;633.97;;
1010;SDS011;494;48.744;10.106;2023-09-18T02:01:05;670.83;;;628.63;;
1010;SDS011;494;48.744;10.106;2023-09-18T02:03:38;658.17;;;617.20;;
1010;SDS011;494;48.744;10.106;2023-09-18T02:06:29;627.83;;;588.43;;
1010;SDS011;494;48.744;10.106;2023-09-18T02:11:49;585.90;;;549.60;;
1010;SDS011;494;48.744;10.106;2023-09-18T02:14:21;563.57;;;528.73;;
1010;SDS011;494;48.744;10.106;2023-09-18T02:16:50;529.73;;;496.90;;
1010;SDS011;494;48.744;10.106;2023-09-18T02:19:26;507.17;;;475.90;;
1010;SDS011;494;48.744;10.106;2023-09-18T02:21:56;519.97;;;487.97;;
1010;SDS011;494;48.744;10.106;2023-09-18T02:24:28;533.83;;;500.83;;
1010;SDS011;494;48.744;10.106;2023-09-18T02:27:11;517.63;;;485.73;;
1010;SDS011;494;48.744;10.106;2023-09-18T02:29:44;501.27;;;470.67;;
1010;SDS011;494;48.744;10.106;2023-09-18T02:32:16;482.57;;;453.07;;
1010;SDS011;494;48.744;10.106;2023-09-18T02:34:47;456.13;;;428.13;;
1010;SDS011;494;48.744;10.106;2023-09-18T02:37:18;447.50;;;419.90;;
1010;SDS011;494;48.744;10.106;2023-09-18T02:39:53;433.90;;;407.27;;
1010;SDS011;494;48.744;10.106;2023-09-18T02:42:22;419.67;;;393.80;;
1010;SDS011;494;48.744;10.106;2023-09-18T02:44:51;414.43;;;388.97;;
1010;SDS011;494;48.744;10.106;2023-09-18T02:47:24;389.00;;;364.70;;
1010;SDS011;494;48.744;10.106;2023-09-18T02:49:56;370.00;;;347.17;;
1010;SDS011;494;48.744;10.106;2023-09-18T02:52:26;356.93;;;334.70;;
1010;SDS011;494;48.744;10.106;2023-09-18T02:54:57;355.27;;;333.10;;
1010;SDS011;494;48.744;10.106;2023-09-18T02:57:26;330.60;;;309.67;;
1010;SDS011;494;48.744;10.106;2023-09-18T02:59:56;296.10;;;276.97;;
1010;SDS011;494;48.744;10.106;2023-09-18T03:02:26;286.33;;;267.53;;
1010;SDS011;494;48.744;10.106;2023-09-18T03:04:57;281.80;;;263.37;;
1010;SDS011;494;48.744;10.106;2023-09-18T03:07:31;279.30;;;261.00;;
1010;SDS011;494;48.744;10.106;2023-09-18T03:10:03;278.90;;;260.40;;
1010;SDS011;494;48.744;10.106;2023-09-18T03:12:36;274.07;;;255.63;;
1010;SDS011;494;48.744;10.106;2023-09-18T03:15:06;299.33;;;280.00;;
1010;SDS011;494;48.744;10.106;2023-09-18T03:17:37;324.60;;;304.10;;
1010;SDS011;494;48.744;10.106;2023-09-18T03:20:11;277.77;;;258.87;;
1010;SDS011;494;48.744;10.106;2023-09-18T03:22:43;247.33;;;230.20;;
1010;SDS011;494;48.744;10.106;2023-09-18T03:25:16;208.00;;;192.67;;
1010;SDS011;494;48.744;10.106;2023-09-18T03:27:50;142.90;;;130.30;;
1010;SDS011;494;48.744;10.106;2023-09-18T03:30:21;123.17;;;111.27;;
1010;SDS011;494;48.744;10.106;2023-09-18T03:32:52;111.57;;;100.57;;
1010;SDS011;494;48.744;10.106;2023-09-18T03:35:21;91.07;;;80.73;;
1010;SDS011;494;48.744;10.106;2023-09-18T03:37:51;84.73;;;56.07;;
1010;SDS011;494;48.744;10.106;2023-09-18T03:40:23;73.33;;;42.13;;
1010;SDS011;494;48.744;10.106;2023-09-18T03:42:53;68.57;;;31.23;;
1010;SDS011;494;48.744;10.106;2023-09-18T03:45:22;68.20;;;24.40;;
1010;SDS011;494;48.744;10.106;2023-09-18T03:47:56;66.97;;;20.83;;
1010;SDS011;494;48.744;10.106;2023-09-18T03:50:27;65.67;;;20.40;;
1010;SDS011;494;48.744;10.106;2023-09-18T03:52:59;64.27;;;20.70;;
1010;SDS011;494;48.744;10.106;2023-09-18T03:55:32;68.63;;;26.87;;
1010;SDS011;494;48.744;10.106;2023-09-18T03:58:02;68.07;;;31.67;;
1010;SDS011;494;48.744;10.106;2023-09-18T04:00:32;72.97;;;43.07;;
1010;SDS011;494;48.744;10.106;2023-09-18T04:03:10;79.03;;;50.33;;
1010;SDS011;494;48.744;10.106;2023-09-18T04:05:40;82.40;;;57.93;;
1010;SDS011;494;48.744;10.106;2023-09-18T04:08:10;88.50;;;66.43;;
1010;SDS011;494;48.744;10.106;2023-09-18T04:10:43;94.60;;;83.43;;
1010;SDS011;494;48.744;10.106;2023-09-18T04:13:13;109.47;;;98.13;;
1010;SDS011;494;48.744;10.106;2023-09-18T04:15:44;126.37;;;114.37;;
1010;SDS011;494;48.744;10.106;2023-09-18T04:18:13;138.07;;;125.60;;
1010;SDS011;494;48.744;10.106;2023-09-18T04:20:43;156.77;;;143.63;;
1010;SDS011;494;48.744;10.106;2023-09-18T04:23:20;176.93;;;162.83;;
1010;SDS011;494;48.744;10.106;2023-09-18T04:25:53;196.67;;;181.30;;
1010;SDS011;494;48.744;10.106;2023-09-18T04:28:25;237.17;;;220.60;;
1010;SDS011;494;48.744;10.106;2023-09-18T04:30:55;231.20;;;214.97;;
1010;SDS011;494;48.744;10.106;2023-09-18T04:33:26;249.77;;;232.13;;
1010;SDS011;494;48.744;10.106;2023-09-18T04:35:56;258.43;;;241.03;;
1010;SDS011;494;48.744;10.106;2023-09-18T04:38:26;305.40;;;285.83;;
1010;SDS011;494;48.744;10.106;2023-09-18T04:41:07;332.40;;;311.50;;
1010;SDS011;494;48.744;10.106;2023-09-18T04:43:37;361.33;;;338.97;;
1010;SDS011;494;48.744;10.106;2023-09-18T04:46:06;387.97;;;364.07;;
1010;SDS011;494;48.744;10.106;2023-09-18T04:48:37;397.33;;;372.93;;
1010;SDS011;494;48.744;10.106;2023-09-18T04:51:06;433.10;;;406.70;;
1010;SDS011;494;48.744;10.106;2023-09-18T04:53:37;459.13;;;430.93;;
1010;SDS011;494;48.744;10.106;2023-09-18T04:56:07;486.73;;;457.23;;
1010;SDS011;494;48.744;10.106;2023-09-18T04:58:38;508.20;;;476.63;;
1010;SDS011;494;48.744;10.106;2023-09-18T05:01:17;543.63;;;510.57;;
1010;SDS011;494;48.744;10.106;2023-09-18T05:03:48;556.70;;;522.30;;
1010;SDS011;494;48.744;10.106;2023-09-18T05:06:18;581.47;;;545.93;;
1010;SDS011;494;48.744;10.106;2023-09-18T05:08:48;580.93;;;545.13;;
1010;SDS011;494;48.744;10.106;2023-09-18T05:14:40;628.00;;;588.77;;
1010;SDS011;494;48.744;10.106;2023-09-18T05:17:09;660.33;;;618.47;;
1010;SDS011;494;48.744;10.106;2023-09-18T05:19:43;682.00;;;638.67;;
1010;SDS011;494;48.744;10.106;2023-09-18T05:22:13;717.57;;;671.37;;
1010;SDS011;494;48.744;10.106;2023-09-18T05:24:43;731.83;;;683.87;;
1010;SDS011;494;48.744;10.106;2023-09-18T05:27:15;764.00;;;713.47;;
1010;SDS011;494;48.744;10.106;2023-09-18T05:29:45;762.67;;;712.10;;
1010;SDS011;494;48.744;10.106;2023-09-18T05:32:13;774.07;;;722.17;;
1010;SDS011;494;48.744;10.106;2023-09-18T05:34:45;780.03;;;727.30;;
1010;SDS011;494;48.744;10.106;2023-09-18T05:37:14;817.53;;;761.83;;
1010;SDS011;494;48.744;10.106;2023-09-18T05:39:43;839.83;;;782.90;;
1010;SDS011;494;48.744;10.106;2023-09-18T05:42:15;837.67;;;779.50;;
1010;SDS011;494;48.744;10.106;2023-09-18T05:44:44;864.17;;;804.00;;
1010;SDS011;494;48.744;10.106;2023-09-18T05:47:12;877.10;;;815.00;;
1010;SDS011;494;48.744;10.106;2023-09-18T05:49:41;895.27;;;831.60;;
1010;SDS011;494;48.744;10.106;2023-09-18T05:52:10;891.60;;;827.10;;
1010;SDS011;494;48.744;10.106;2023-09-18T05:54:39;912.00;;;846.03;;
1010;SDS011;494;48.744;10.106;2023-09-18T05:57:07;912.90;;;846.60;;
1010;SDS011;494;48.744;10.106;2023-09-18T05:59:38;906.80;;;840.53;;
1010;SDS011;494;48.744;10.106;2023-09-18T06:02:10;916.87;;;850.10;;
1010;SDS011;494;48.744;10.106;2023-09-18T06:04:42;912.53;;;845.03;;
1010;SDS011;494;48.744;10.106;2023-09-18T06:07:11;917.53;;;850.63;;
1010;SDS011;494;48.744;10.106;2023-09-18T06:09:40;904.67;;;839.20;;
1010;SDS011;494;48.744;10.106;2023-09-18T06:12:09;880.83;;;816.63;;
1010;SDS011;494;48.744;10.106;2023-09-18T06:14:40;878.17;;;814.97;;
1010;SDS011;494;48.744;10.106;2023-09-18T06:17:09;859.33;;;797.73;;
1010;SDS011;494;48.744;10.106;2023-09-18T06:19:41;838.20;;;779.00;;
1010;SDS011;494;48.744;10.106;2023-09-18T06:22:10;782.90;;;728.13;;
1010;SDS011;494;48.744;10.106;2023-09-18T06:24:42;793.23;;;738.53;;
1010;SDS011;494;48.744;10.106;2023-09-18T06:27:11;768.37;;;716.30;;
1010;SDS011;494;48.744;10.106;2023-09-18T06:29:41;711.27;;;663.00;;
1010;SDS011;494;48.744;10.106;2023-09-18T06:32:10;635.00;;;593.43;;
1010;SDS011;494;48.744;10.106;2023-09-18T06:34:40;540.90;;;505.90;;
1010;SDS011;494;48.744;10.106;2023-09-18T06:37:11;415.67;;;388.00;;
1010;SDS011;494;48.744;10.106;2023-09-18T06:39:39;243.80;;;225.20;;
1010;SDS011;494;48.744;10.106;2023-09-18T06:42:08;161.87;;;146.57;;
1010;SDS011;494;48.744;10.106;2023-09-18T06:44:37;132.57;;;118.07;;
1010;SDS011;494;48.744;10.106;2023-09-18T06:47:08;136.37;;;119.73;;
1010;SDS011;494;48.744;10.106;2023-09-18T06:49:37;119.93;;;96.97;;
1010;SDS011;494;48.744;10.106;2023-09-18T06:52:08;140.27;;;124.83;;
1010;SDS011;494;48.744;10.106;2023-09-18T06:54:38;193.27;;;176.27;;
1010;SDS011;494;48.744;10.106;2023-09-18T06:57:07;302.87;;;280.97;;
1010;SDS011;494;48.744;10.106;2023-09-18T06:59:36;430.60;;;402.07;;
1010;SDS011;494;48.744;10.106;2023-09-18T07:02:05;534.43;;;498.83;;
1010;SDS011;494;48.744;10.106;2023-09-18T07:04:35;598.73;;;559.53;;
1010;SDS011;494;48.744;10.106;2023-09-18T07:07:12;658.70;;;615.27;;
1010;SDS011;494;48.744;10.106;2023-09-18T07:09:42;758.17;;;706.93;;
1010;SDS011;494;48.744;10.106;2023-09-18T07:12:13;841.83;;;782.90;;
1010;SDS011;494;48.744;10.106;2023-09-18T07:14:51;884.13;;;820.33;;
1010;SDS011;494;48.744;10.106;2023-09-18T07:17:21;919.90;;;852.67;;
1010;SDS011;494;48.744;10.106;2023-09-18T07:19:50;927.80;;;858.47;;
1010;SDS011;494;48.744;10.106;2023-09-18T07:22:19;927.77;;;859.00;;
1010;SDS011;494;48.744;10.106;2023-09-18T07:24:48;943.47;;;873.43;;
1010;SDS011;494;48.744;10.106;2023-09-18T07:27:17;945.67;;;875.93;;
1010;SDS011;494;48.744;10.106;2023-09-18T07:29:46;951.00;;;880.50;;
1010;SDS011;494;48.744;10.106;2023-09-18T07:32:15;943.20;;;871.27;;
1010;SDS011;494;48.744;10.106;2023-09-18T07:35:05;972.97;;;898.43;;
1010;SDS011;494;48.744;10.106;2023-09-18T07:37:36;972.50;;;897.83;;
1010;SDS011;494;48.744;10.106;2023-09-18T07:40:05;971.00;;;896.03;;
1010;SDS011;494;48.744;10.106;2023-09-18T07:42:35;992.17;;;913.73;;
1010;SDS011;494;48.744;10.106;2023-09-18T07:45:04;1007.43;;;925.83;;
1010;SDS011;494;48.744;10.106;2023-09-18T07:47:34;1004.37;;;922.60;;
1010;SDS011;494;48.744;10.106;2023-09-18T07:50:12;1033.70;;;947.77;;
1010;SDS011;494;48.744;10.106;2023-09-18T07:52:44;1023.00;;;937.60;;
1010;SDS011;494;48.744;10.106;2023-09-18T07:55:13;1029.90;;;943.83;;
1010;SDS011;494;48.744;10.106;2023-09-18T07:57:42;1037.47;;;950.03;;
1010;SDS011;494;48.744;10.106;2023-09-18T08:00:12;1012.63;;;927.17;;
1010;SDS011;494;48.744;10.106;2023-09-18T08:02:43;1005.67;;;922.07;;
1010;SDS011;494;48.744;10.106;2023-09-18T08:05:17;922.57;;;850.33;;
1010;SDS011;494;48.744;10.106;2023-09-18T08:07:46;908.40;;;837.40;;
1010;SDS011;494;48.744;10.106;2023-09-18T08:10:15;793.47;;;735.20;;
1010;SDS011;494;48.744;10.106;2023-09-18T08:12:45;794.07;;;735.83;;
1010;SDS011;494;48.744;10.106;2023-09-18T08:15:15;742.50;;;687.90;;
1010;SDS011;494;48.744;10.106;2023-09-18T08:17:44;698.90;;;649.93;;
1010;SDS011;494;48.744;10.106;2023-09-18T08:20:46;328.47;;;305.13;;
1010;SDS011;494;48.744;10.106;2023-09-18T08:23:16;563.23;;;525.63;;
1010;SDS011;494;48.744;10.106;2023-09-18T08:25:45;404.53;;;376.27;;
1010;SDS011;494;48.744;10.106;2023-09-18T08:28:19;418.43;;;390.07;;
1010;SDS011;494;48.744;10.106;2023-09-18T08:30:48;261.10;;;241.27;;
1010;SDS011;494;48.744;10.106;2023-09-18T08:33:17;110.80;;;99.23;;
1010;SDS011;494;48.744;10.106;2023-09-18T08:35:50;293.30;;;271.60;;
1010;SDS011;494;48.744;10.106;2023-09-18T08:38:19;597.83;;;557.80;;
1010;SDS011;494;48.744;10.106;2023-09-18T08:40:48;958.10;;;885.07;;
1010;SDS011;494;48.744;10.106;2023-09-18T08:43:19;980.87;;;904.80;;
1010;SDS011;494;48.744;10.106;2023-09-18T08:45:51;975.17;;;899.27;;
1010;SDS011;494;48.744;10.106;2023-09-18T08:48:29;1023.13;;;942.50;;
1010;SDS011;494;48.744;10.106;2023-09-18T08:51:03;913.10;;;846.00;;
1010;SDS011;494;48.744;10.106;2023-09-18T08:53:35;983.40;;;907.27;;
1010;SDS011;494;48.744;10.106;2023-09-18T08:56:05;1005.93;;;927.43;;
1010;SDS011;494;48.744;10.106;2023-09-18T08:58:37;1028.83;;;945.17;;
1010;SDS011;494;48.744;10.106;2023-09-18T09:01:09;1083.60;;;992.63;;
1010;SDS011;494;48.744;10.106;2023-09-18T09:03:39;1072.67;;;981.40;;
1010;SDS011;494;48.744;10.106;2023-09-18T09:06:13;1138.20;;;999.90;;
1010;SDS011;494;48.744;10.106;2023-09-18T09:08:43;1170.60;;;999.90;;
1010;SDS011;494;48.744;10.106;2023-09-18T09:11:13;1167.67;;;999.90;;
1010;SDS011;494;48.744;10.106;2023-09-18T09:13:42;1166.90;;;999.90;;
1010;SDS011;494;48.744;10.106;2023-09-18T09:16:12;1179.93;;;999.90;;
1010;SDS011;494;48.744;10.106;2023-09-18T09:18:49;1170.73;;;999.90;;
1010;SDS011;494;48.744;10.106;2023-09-18T09:21:21;1151.40;;;999.90;;
1010;SDS011;494;48.744;10.106;2023-09-18T09:23:52;1144.07;;;999.90;;
1010;SDS011;494;48.744;10.106;2023-09-18T09:26:25;1155.03;;;999.90;;
1010;SDS011;494;48.744;10.106;2023-09-18T09:28:55;1084.60;;;991.40;;
1010;SDS011;494;48.744;10.106;2023-09-18T09:31:25;979.97;;;906.23;;
1010;SDS011;494;48.744;10.106;2023-09-18T09:33:56;882.27;;;818.67;;
1010;SDS011;494;48.744;10.106;2023-09-18T09:36:30;921.97;;;854.70;;
1010;SDS011;494;48.744;10.106;2023-09-18T09:39:00;831.97;;;773.30;;
1010;SDS011;494;48.744;10.106;2023-09-18T09:41:32;668.23;;;623.33;;
1010;SDS011;494;48.744;10.106;2023-09-18T09:44:09;767.00;;;714.27;;
1010;SDS011;494;48.744;10.106;2023-09-18T09:46:46;340.33;;;316.53;;
1010;SDS011;494;48.744;10.106;2023-09-18T09:49:15;638.17;;;594.93;;
1010;SDS011;494;48.744;10.106;2023-09-18T09:51:51;274.30;;;252.40;;
1010;SDS011;494;48.744;10.106;2023-09-18T09:54:31;119.63;;;104.93;;
1010;SDS011;494;48.744;10.106;2023-09-18T09:57:03;95.00;;;82.37;;
1010;SDS011;494;48.744;10.106;2023-09-18T09:59:32;224.97;;;207.83;;
1010;SDS011;494;48.744;10.106;2023-09-18T10:02:05;160.17;;;146.47;;
1010;SDS011;494;48.744;10.106;2023-09-18T10:04:39;144.97;;;131.93;;
1010;SDS011;494;48.744;10.106;2023-09-18T10:07:11;155.27;;;141.80;;
1010;SDS011;494;48.744;10.106;2023-09-18T10:09:42;222.67;;;205.67;;
1010;SDS011;494;48.744;10.106;2023-09-18T10:12:15;106.13;;;91.37;;
1010;SDS011;494;48.744;10.106;2023-09-18T10:14:48;251.80;;;233.40;;
1010;SDS011;494;48.744;10.106;2023-09-18T10:17:29;336.47;;;312.77;;
1010;SDS011;494;48.744;10.106;2023-09-18T10:20:02;316.70;;;294.97;;
1010;SDS011;494;48.744;10.106;2023-09-18T10:22:46;496.13;;;463.13;;
1010;SDS011;494;48.744;10.106;2023-09-18T10:25:21;290.83;;;269.47;;
1010;SDS011;494;48.744;10.106;2023-09-18T10:27:54;414.23;;;385.20;;
1010;SDS011;494;48.744;10.106;2023-09-18T10:30:29;627.47;;;586.83;;
1010;SDS011;494;48.744;10.106;2023-09-18T10:33:00;527.33;;;492.77;;
1010;SDS011;494;48.744;10.106;2023-09-18T10:35:34;393.40;;;368.00;;
1010;SDS011;494;48.744;10.106;2023-09-18T10:38:05;681.07;;;634.30;;
1010;SDS011;494;48.744;10.106;2023-09-18T10:40:35;828.00;;;766.87;;
1010;SDS011;494;48.744;10.106;2023-09-18T10:43:06;922.27;;;849.83;;
1010;SDS011;494;48.744;10.106;2023-09-18T10:45:39;969.47;;;891.53;;
1010;SDS011;494;48.744;10.106;2023-09-18T10:48:10;999.70;;;918.53;;
1010;SDS011;494;48.744;10.106;2023-09-18T10:50:41;1017.57;;;932.80;;
1010;SDS011;494;48.744;10.106;2023-09-18T10:53:13;1037.57;;;951.07;;
1010;SDS011;494;48.744;10.106;2023-09-18T10:55:44;1037.03;;;950.93;;
1010;SDS011;494;48.744;10.106;2023-09-18T10:58:15;1033.97;;;949.13;;
1010;SDS011;494;48.744;10.106;2023-09-18T11:00:53;1010.03;;;928.10;;
1010;SDS011;494;48.744;10.106;2023-09-18T11:03:24;1001.87;;;923.53;;
1010;SDS011;494;48.744;10.106;2023-09-18T11:06:04;986.73;;;910.60;;
1010;SDS011;494;48.744;10.106;2023-09-18T11:08:47;983.97;;;908.17;;
1010;SDS011;494;48.744;10.106;2023-09-18T11:11:21;978.43;;;903.90;;
1010;SDS011;494;48.744;10.106;2023-09-18T11:13:52;960.77;;;889.50;;
1010;SDS011;494;48.744;10.106;2023-09-18T11:16:33;935.73;;;867.00;;
1010;SDS011;494;48.744;10.106;2023-09-18T11:19:10;891.30;;;827.87;;
1010;SDS011;494;48.744;10.106;2023-09-18T11:21:42;843.30;;;784.67;;
1010;SDS011;494;48.744;10.106;2023-09-18T11:24:18;819.23;;;763.20;;
1010;SDS011;494;48.744;10.106;2023-09-18T11:26:50;823.73;;;767.33;;
1010;SDS011;494;48.744;10.106;2023-09-18T11:29:21;809.73;;;753.90;;
1010;SDS011;494;48.744;10.106;2023-09-18T11:31:55;831.73;;;773.80;;
1010;SDS011;494;48.744;10.106;2023-09-18T11:34:31;798.00;;;743.73;;
1010;SDS011;494;48.744;10.106;2023-09-18T11:37:18;805.13;;;750.43;;
1010;SDS011;494;48.744;10.106;2023-09-18T11:43:18;852.33;;;793.17;;
1010;SDS011;494;48.744;10.106;2023-09-18T11:45:58;867.93;;;806.90;;
1010;SDS011;494;48.744;10.106;2023-09-18T11:48:36;849.53;;;790.17;;
1010;SDS011;494;48.744;10.106;2023-09-18T11:51:20;850.30;;;790.93;;
1010;SDS011;494;48.744;10.106;2023-09-18T11:53:54;826.73;;;768.80;;
1010;SDS011;494;48.744;10.106;2023-09-18T11:56:30;845.03;;;786.17;;
1010;SDS011;494;48.744;10.106;2023-09-18T11:59:33;869.03;;;807.10;;
1010;SDS011;494;48.744;10.106;2023-09-18T12:02:25;889.80;;;826.07;;
1010;SDS011;494;48.744;10.106;2023-09-18T12:05:09;901.33;;;835.50;;
1010;SDS011;494;48.744;10.106;2023-09-18T12:08:00;924.23;;;856.63;;
1010;SDS011;494;48.744;10.106;2023-09-18T12:10:38;889.90;;;825.07;;
1010;SDS011;494;48.744;10.106;2023-09-18T12:13:20;895.17;;;830.30;;
1010;SDS011;494;48.744;10.106;2023-09-18T12:15:57;889.83;;;825.40;;
1010;SDS011;494;48.744;10.106;2023-09-18T12:18:36;905.40;;;838.47;;
1010;SDS011;494;48.744;10.106;2023-09-18T12:21:31;934.13;;;863.60;;
1010;SDS011;494;48.744;10.106;2023-09-18T12:24:04;935.97;;;865.57;;
1010;SDS011;494;48.744;10.106;2023-09-18T12:26:37;950.70;;;878.00;;
1010;SDS011;494;48.744;10.106;2023-09-18T12:29:11;947.17;;;874.40;;
1010;SDS011;494;48.744;10.106;2023-09-18T12:31:43;955.33;;;881.60;;
1010;SDS011;494;48.744;10.106;2023-09-18T12:34:27;993.80;;;916.03;;
1010;SDS011;494;48.744;10.106;2023-09-18T12:37:14;1004.40;;;924.07;;
1010;SDS011;494;48.744;10.106;2023-09-18T12:40:00;1025.13;;;941.70;;
1010;SDS011;494;48.744;10.106;2023-09-18T12:42:39;1018.97;;;936.37;;
1010;SDS011;494;48.744;10.106;2023-09-18T12:45:18;1016.30;;;933.63;;
1010;SDS011;494;48.744;10.106;2023-09-18T12:47:53;1025.27;;;941.50;;
1010;SDS011;494;48.744;10.106;2023-09-18T12:50:29;1020.30;;;936.33;;
1010;SDS011;494;48.744;10.106;2023-09-18T12:53:08;1032.30;;;946.67;;
1010;SDS011;494;48.744;10.106;2023-09-18T12:55:55;1065.13;;;970.63;;
1010;SDS011;494;48.744;10.106;2023-09-18T12:58:36;1092.23;;;989.70;;
1010;SDS011;494;48.744;10.106;2023-09-18T13:01:56;1075.47;;;969.70;;
1010;SDS011;494;48.744;10.106;2023-09-18T13:04:34;898.07;;;824.30;;
1010;SDS011;494;48.744;10.106;2023-09-18T13:07:11;1136.13;;;999.90;;
1010;SDS011;494;48.744;10.106;2023-09-18T13:09:57;1086.07;;;994.20;;
1010;SDS011;494;48.744;10.106;2023-09-18T13:12:41;987.03;;;911.23;;
1010;SDS011;494;48.744;10.106;2023-09-18T13:15:25;856.20;;;796.57;;
1010;SDS011;494;48.744;10.106;2023-09-18T13:21:34;383.07;;;359.67;;
1010;SDS011;494;48.744;10.106;2023-09-18T13:24:08;113.93;;;103.03;;
1010;SDS011;494;48.744;10.106;2023-09-18T13:27:11;74.40;;;43.70;;
1010;SDS011;494;48.744;10.106;2023-09-18T13:29:42;90.87;;;75.53;;
1010;SDS011;494;48.744;10.106;2023-09-18T13:32:15;200.40;;;184.83;;
1010;SDS011;494;48.744;10.106;2023-09-18T13:34:48;378.43;;;355.03;;
1010;SDS011;494;48.744;10.106;2023-09-18T13:37:17;489.87;;;459.93;;
1010;SDS011;494;48.744;10.106;2023-09-18T13:39:50;614.00;;;575.40;;
1010;SDS011;494;48.744;10.106;2023-09-18T13:42:20;736.97;;;688.43;;
1010;SDS011;494;48.744;10.106;2023-09-18T13:44:51;828.13;;;771.57;;
1010;SDS011;494;48.744;10.106;2023-09-18T13:47:22;899.67;;;834.97;;
1010;SDS011;494;48.744;10.106;2023-09-18T13:52:49;993.63;;;916.43;;
1010;SDS011;494;48.744;10.106;2023-09-18T13:55:35;1014.87;;;933.87;;
1010;SDS011;494;48.744;10.106;2023-09-18T13:58:06;1002.37;;;923.10;;
1010;SDS011;494;48.744;10.106;2023-09-18T14:00:36;962.27;;;887.70;;
1010;SDS011;494;48.744;10.106;2023-09-18T14:03:07;817.27;;;758.00;;
1010;SDS011;494;48.744;10.106;2023-09-18T14:05:38;602.87;;;563.20;;
1010;SDS011;494;48.744;10.106;2023-09-18T14:08:12;585.77;;;546.80;;
1010;SDS011;494;48.744;10.106;2023-09-18T14:10:44;280.10;;;260.47;;
1010;SDS011;494;48.744;10.106;2023-09-18T14:13:15;111.70;;;100.40;;
1010;SDS011;494;48.744;10.106;2023-09-18T14:15:44;69.30;;;35.33;;
1010;SDS011;494;48.744;10.106;2023-09-18T14:18:18;76.53;;;48.43;;
1010;SDS011;494;48.744;10.106;2023-09-18T14:20:51;104.10;;;88.17;;
1010;SDS011;494;48.744;10.106;2023-09-18T14:23:50;116.03;;;103.83;;
1010;SDS011;494;48.744;10.106;2023-09-18T14:26:23;133.80;;;121.87;;
1010;SDS011;494;48.744;10.106;2023-09-18T14:28:53;202.17;;;187.30;;
1010;SDS011;494;48.744;10.106;2023-09-18T14:31:24;334.03;;;312.03;;
1010;SDS011;494;48.744;10.106;2023-09-18T14:34:08;443.00;;;415.17;;
1010;SDS011;494;48.744;10.106;2023-09-18T14:36:45;560.30;;;526.30;;
1010;SDS011;494;48.744;10.106;2023-09-18T14:39:18;594.57;;;557.73;;
1010;SDS011;494;48.744;10.106;2023-09-18T14:41:50;686.93;;;644.20;;
1010;SDS011;494;48.744;10.106;2023-09-18T14:44:43;767.40;;;717.03;;
1010;SDS011;494;48.744;10.106;2023-09-18T14:47:45;813.10;;;758.87;;
1010;SDS011;494;48.744;10.106;2023-09-18T14:51:07;839.17;;;781.37;;
1010;SDS011;494;48.744;10.106;2023-09-18T14:54:08;888.70;;;826.23;;
1010;SDS011;494;48.744;10.106;2023-09-18T14:59:57;940.70;;;870.93;;
1010;SDS011;494;48.744;10.106;2023-09-18T15:02:44;955.83;;;883.50;;
1010;SDS011;494;48.744;10.106;2023-09-18T15:05:27;964.13;;;890.43;;
1010;SDS011;494;48.744;10.106;2023-09-18T15:08:13;991.67;;;914.60;;
1010;SDS011;494;48.744;10.106;2023-09-18T15:10:43;1018.33;;;936.70;;
1010;SDS011;494;48.744;10.106;2023-09-18T15:13:27;1048.53;;;963.93;;
1010;SDS011;494;48.744;10.106;2023-09-18T15:15:57;1048.17;;;962.67;;
1010;SDS011;494;48.744;10.106;2023-09-18T15:18:26;1051.73;;;966.27;;